Aérodrome :
LOGIN :

S'inscrire | Disclaimer

   EN    FR    IT 

 










Légende :    VFR   VFR Marginal   IFR   IFR Intensif   IFR Très Intensif
Visi : 
Plafond : 
>= 8 km
>= 3000ft
5 à 8 km
1000 à 3000 ft
1500m à 5 km
500 à 1000 ft
800 à 1500m
200 à 500 ft
< 800m
< 200 ft
Symboles :   Orages  Brouillard  Fortes neiges  Fortes précipitations  Vent > 20 kt
SIGMETs :   Divers  Orages  Givrage  Turbulence  Onde Orograph.  Cendres Volcan.






- Altitude de l'aérodrome : 12 ft
- Code IATA : BCN


LEBL - Barcelone

DERNIER METAR :
  • 230130Z 33016KT 9999 -RA FEW018 SCT044 16/14 Q1005 TEMPO 3000 TSRA SCT035CB

METARs EXPIRÉS :
  • 230100Z 33018KT 9999 -RA FEW018 SCT044 16/14 Q1003 TEMPO 3000 TSRA SCT035CB
  • 230048Z 32015KT 9999 -RA FEW010 BKN048 16/14 Q1005 TEMPO 3000 TSRA SCT035CB
  • 230030Z 32015KT 9999 TSRA FEW010 FEW028CB SCT030 16/14 Q1006 TEMPO 3000 SCT035CB
  • 230000Z 31019KT 9000 TSRA FEW010 FEW035CB SCT050 16/15 Q1005 TEMPO 3000 TSRA SCT035CB
  • 222340Z 34022KT 9999 -TSRA FEW010 SCT035CB 16/15 Q1004 TEMPO 3000
  • 222332Z 35019KT 5000 TSRA FEW010 SCT035CB 16/15 Q1004 TEMPO 3000
  • 222320Z 32014KT 4500 +TSRA FEW010 SCT035CB BKN050 16/15 Q1006 NOSIG
  • 222312Z 33013KT 290V350 2000 +TSRA FEW010 SCT035CB BKN050 16/15 Q1006 NOSIG
  • 222300Z 33017KT 9999 TSRA FEW010 SCT035CB SCT049 16/15 Q1005 TEMPO 3000

TAF AMD TAF LEBL
Valide du 23 à 00h jusqu'au 24 à 00h UTC


230017Z 2300/2324 36008KT 9999 FEW020 TX21/2312Z TN15/2306Z
TEMPO 2300/2304 34020G30KT 3000 TSRA BKN013 SCT035CB
BECMG 2306/2308 20015KT
BECMG 2322/2324 31005KT



MET'MAP, la Météo Aéronautique d'un coup d'oeil ! - Copyright ORBIFLY Décembre 2007 - Disclaimer

ORBIFLY MET'MAP TEAM :

Programmation & Développement : Alexandra Zaïnal
Conception & Développement : Baudouin d'Aumeries
Co-Programmation & Développement : Marc-Olivier Méhu
Soutien technique & logistique : Manuel Goepfert

Contact : metmap@orbifly.com




SOURCES & CREDITS :

   NOAA